Time;durP1;ratioP1;P1;durP2;ratioP2;P2;SDS_P1;SDS_P2;PMS_P1;PMS_P2;Temp;Humidity;BMP_temperature;BMP_pressure;BME280_temperature;BME280_humidity;BME280_pressure;Samples;Min_cycle;Max_cycle;Signal;HPM_P1;HPM_P2
2021/11/05 00:00:46;;;;;;;25.10;17.45;;;;;;;6.59;100.00;100500.53;4965692;28;20495;-80
2021/11/05 00:03:13;;;;;;;26.73;16.73;;;;;;;6.57;100.00;100504.88;4966645;28;20058;-82
2021/11/05 00:05:40;;;;;;;25.02;17.25;;;;;;;6.55;100.00;100506.56;4950437;28;20071;-83
2021/11/05 00:08:08;;;;;;;29.08;17.63;;;;;;;6.56;100.00;100515.25;4964984;28;20058;-86
2021/11/05 00:10:41;;;;;;;34.97;19.10;;;;;;;6.53;100.00;100505.72;4980652;28;20050;-83
2021/11/05 00:13:10;;;;;;;33.25;18.70;;;;;;;6.53;100.00;100518.72;4968215;28;20043;-78
2021/11/05 00:15:36;;;;;;;28.60;17.02;;;;;;;6.53;100.00;100513.50;4969697;28;20053;-82
2021/11/05 00:18:06;;;;;;;25.67;17.13;;;;;;;6.55;100.00;100519.56;4984248;28;20039;-86
2021/11/05 00:20:33;;;;;;;29.10;18.35;;;;;;;6.56;100.00;100520.47;4969387;28;20129;-80
2021/11/05 00:23:00;;;;;;;27.13;17.90;;;;;;;6.56;100.00;100518.72;4968151;28;20043;-82
2021/11/05 00:25:27;;;;;;;27.27;17.38;;;;;;;6.56;100.00;100521.31;4965016;28;20046;-79
2021/11/05 00:27:54;;;;;;;27.27;18.52;;;;;;;6.54;100.00;100527.38;4963099;28;20078;-83
2021/11/05 00:30:21;;;;;;;26.27;18.25;;;;;;;6.52;100.00;100531.69;4964304;28;20776;-80
2021/11/05 00:32:49;;;;;;;34.03;18.33;;;;;;;6.51;100.00;100540.38;4950181;28;20050;-82
2021/11/05 00:35:19;;;;;;;26.33;16.13;;;;;;;6.49;100.00;100536.88;4969778;28;20046;-80
2021/11/05 00:37:45;;;;;;;32.35;17.20;;;;;;;6.51;100.00;100551.63;4950974;28;20062;-81
2021/11/05 00:40:14;;;;;;;24.80;16.70;;;;;;;6.54;100.00;100548.19;4967281;28;20044;-78
2021/11/05 00:42:41;;;;;;;25.42;16.05;;;;;;;6.55;100.00;100549.94;4966449;28;20078;-80
2021/11/05 00:45:08;;;;;;;26.52;17.33;;;;;;;6.57;100.00;100561.19;4967333;28;20059;-78
2021/11/05 00:47:35;;;;;;;24.60;18.23;;;;;;;6.59;100.00;100562.09;4967819;28;20046;-83
2021/11/05 00:50:02;;;;;;;25.10;16.40;;;;;;;6.61;100.00;100560.38;4983038;28;20046;-84
2021/11/05 00:52:32;;;;;;;26.55;17.27;;;;;;;6.62;100.00;100560.38;4980402;28;20043;-86
2021/11/05 00:54:59;;;;;;;24.60;16.38;;;;;;;6.65;100.00;100569.03;4965301;28;20156;-83
2021/11/05 00:57:33;;;;;;;29.80;18.52;;;;;;;6.65;100.00;100572.53;4967152;28;20038;-81
2021/11/05 01:00:04;;;;;;;27.55;15.77;;;;;;;6.66;100.00;100574.25;4966248;28;20413;-85
2021/11/05 01:02:30;;;;;;;28.98;17.23;;;;;;;6.65;100.00;100577.72;4966927;28;20484;-82
2021/11/05 01:04:57;;;;;;;24.35;15.65;;;;;;;6.67;100.00;100580.34;4965419;28;20038;-80
2021/11/05 01:07:24;;;;;;;26.45;15.75;;;;;;;6.62;100.00;100585.50;4949598;28;20157;-80
2021/11/05 01:09:50;;;;;;;27.67;17.27;;;;;;;6.62;100.00;100582.91;4949381;28;20519;-85
2021/11/05 01:12:18;;;;;;;29.00;17.73;;;;;;;6.59;100.00;100588.94;4965962;28;20057;-84
2021/11/05 01:14:44;;;;;;;25.95;16.77;;;;;;;6.58;100.00;100586.34;4966295;28;20563;-79
2021/11/05 01:17:11;;;;;;;26.40;16.52;;;;;;;6.57;100.00;100597.59;4956111;28;20720;-88
2021/11/05 01:19:37;;;;;;;29.02;18.10;;;;;;;6.54;100.00;100595.84;4965309;28;20043;-85
2021/11/05 01:22:05;;;;;;;28.77;17.80;;;;;;;6.52;100.00;100594.09;4951122;28;20121;-82
2021/11/05 01:24:33;;;;;;;25.15;16.25;;;;;;;6.50;100.00;100601.91;4963049;28;20047;-80
2021/11/05 01:26:59;;;;;;;25.52;17.25;;;;;;;6.49;100.00;100597.56;4948476;28;20133;-82
2021/11/05 01:29:26;;;;;;;27.55;16.73;;;;;;;6.49;100.00;100601.91;4965809;28;20208;-86
2021/11/05 01:31:53;;;;;;;26.48;16.65;;;;;;;6.47;100.00;100607.09;4965834;28;20707;-79
2021/11/05 01:34:20;;;;;;;25.20;16.95;;;;;;;6.43;100.00;100606.19;4980506;28;20051;-86
2021/11/05 01:36:47;;;;;;;27.33;16.70;;;;;;;6.43;100.00;100613.13;4946028;28;20973;-79
2021/11/05 01:39:16;;;;;;;27.75;17.40;;;;;;;6.40;100.00;100611.38;4963707;28;20055;-85
2021/11/05 01:41:43;;;;;;;26.17;17.08;;;;;;;6.42;100.00;100613.97;4965289;28;20047;-81
2021/11/05 01:44:10;;;;;;;28.25;17.70;;;;;;;6.42;100.00;100619.19;4959112;28;20606;-86
2021/11/05 01:46:41;;;;;;;23.85;14.88;;;;;;;6.40;100.00;100616.56;4955442;28;20050;-80
2021/11/05 01:49:12;;;;;;;27.65;16.38;;;;;;;6.39;100.00;100622.63;4963972;28;20062;-81
2021/11/05 01:51:40;;;;;;;26.02;17.80;;;;;;;6.39;100.00;100620.03;4965316;28;20049;-80
2021/11/05 01:54:12;;;;;;;32.25;19.02;;;;;;;6.41;100.00;100626.13;4966411;28;20452;-83
2021/11/05 01:56:42;;;;;;;26.70;18.27;;;;;;;6.43;100.00;100637.41;4962260;28;20178;-79
2021/11/05 01:59:33;;;;;;;26.75;17.25;;;;;;;6.43;100.00;100639.13;4963041;28;20059;-84
2021/11/05 02:02:02;;;;;;;25.02;16.38;;;;;;;6.44;100.00;100641.75;4962370;28;20054;-81
2021/11/05 02:04:28;;;;;;;27.60;17.23;;;;;;;6.47;100.00;100646.09;4966936;28;20057;-80
2021/11/05 02:06:56;;;;;;;26.88;16.50;;;;;;;6.47;100.00;100648.69;4946293;28;20051;-84
2021/11/05 02:09:27;;;;;;;29.10;18.85;;;;;;;6.48;100.00;100653.03;4967286;28;20045;-84
2021/11/05 02:11:59;;;;;;;28.45;17.63;;;;;;;6.50;100.00;100656.50;4965837;28;20050;-84
2021/11/05 02:14:29;;;;;;;27.65;17.23;;;;;;;6.51;100.00;100660.00;4964745;28;20046;-80
2021/11/05 02:17:00;;;;;;;25.67;17.27;;;;;;;6.50;100.00;100666.06;4979605;28;20039;-80
2021/11/05 02:19:30;;;;;;;30.83;17.23;;;;;;;6.52;100.00;100674.72;4965077;28;20046;-83
2021/11/05 02:21:58;;;;;;;26.42;16.00;;;;;;;6.51;100.00;100675.59;4964606;28;20053;-86
2021/11/05 02:24:28;;;;;;;27.48;17.52;;;;;;;6.50;100.00;100671.25;4978383;28;20050;-78
2021/11/05 02:26:57;;;;;;;30.55;18.23;;;;;;;6.50;100.00;100676.47;4961155;28;20165;-79
2021/11/05 02:29:24;;;;;;;31.33;18.65;;;;;;;6.52;100.00;100680.81;4962518;28;20045;-84
2021/11/05 02:31:51;;;;;;;32.80;18.60;;;;;;;6.54;100.00;100678.22;4963417;28;20054;-81
2021/11/05 02:34:18;;;;;;;29.00;17.63;;;;;;;6.54;100.00;100688.63;4960795;28;20489;-88
2021/11/05 02:36:46;;;;;;;27.73;17.40;;;;;;;6.53;100.00;100687.75;4962556;28;20489;-78
2021/11/05 02:39:13;;;;;;;25.00;16.85;;;;;;;6.53;100.00;100684.28;4963124;28;20070;-82
2021/11/05 02:41:43;;;;;;;30.45;17.42;;;;;;;6.51;100.00;100681.66;4963136;28;20046;-78
2021/11/05 02:44:11;;;;;;;28.13;17.35;;;;;;;6.51;100.00;100694.66;4964752;28;20054;-81
2021/11/05 02:46:37;;;;;;;28.70;18.27;;;;;;;6.51;100.00;100694.66;4961651;28;20046;-83
2021/11/05 02:49:08;;;;;;;30.88;19.08;;;;;;;6.53;100.00;100705.06;4947969;28;20057;-78
2021/11/05 02:51:37;;;;;;;31.58;17.70;;;;;;;6.53;100.00;100708.56;4979378;28;20135;-81
2021/11/05 02:54:06;;;;;;;36.50;19.00;;;;;;;6.53;100.00;100699.88;4961123;28;20065;-78
2021/11/05 02:56:32;;;;;;;29.27;17.75;;;;;;;6.55;100.00;100714.63;4964827;28;20529;-81
2021/11/05 02:58:59;;;;;;;32.85;18.95;;;;;;;6.50;100.00;100716.31;4963213;28;20625;-78
2021/11/05 03:01:27;;;;;;;29.92;19.80;;;;;;;6.48;100.00;100718.06;4960689;28;20555;-79
2021/11/05 03:03:54;;;;;;;27.80;17.70;;;;;;;6.46;100.00;100717.16;4964204;28;20043;-80
2021/11/05 03:06:20;;;;;;;34.22;18.33;;;;;;;6.43;100.00;100723.22;4963645;28;20050;-78
2021/11/05 03:08:47;;;;;;;32.58;17.23;;;;;;;6.41;100.00;100724.94;4964502;28;20046;-78
2021/11/05 03:11:13;;;;;;;31.25;18.35;;;;;;;6.39;100.00;100731.84;4962492;28;20481;-85
2021/11/05 03:13:43;;;;;;;34.05;18.13;;;;;;;6.36;100.00;100729.22;4965702;28;20065;-81
2021/11/05 03:16:11;;;;;;;28.83;17.83;;;;;;;6.33;100.00;100739.56;4958826;28;20054;-83
2021/11/05 03:18:41;;;;;;;32.13;18.27;;;;;;;6.31;100.00;100740.41;4963206;28;20050;-81
2021/11/05 03:21:10;;;;;;;30.70;18.55;;;;;;;6.28;100.00;100749.94;4963030;28;20351;-82
2021/11/05 03:23:38;;;;;;;29.92;18.08;;;;;;;6.25;100.00;100746.44;4964258;28;20050;-82
2021/11/05 03:26:05;;;;;;;34.45;18.75;;;;;;;6.22;100.00;100748.97;4961837;28;20047;-82
2021/11/05 03:28:32;;;;;;;29.98;17.50;;;;;;;6.18;100.00;100749.81;4964553;28;20066;-78
2021/11/05 03:30:58;;;;;;;33.47;19.95;;;;;;;6.15;100.00;100747.19;4961571;28;20057;-79
2021/11/05 03:33:25;;;;;;;32.70;18.55;;;;;;;6.12;100.00;100756.69;4963229;28;20051;-81
2021/11/05 03:35:51;;;;;;;33.05;18.17;;;;;;;6.11;100.00;100754.06;4953508;28;20069;-79
2021/11/05 03:38:21;;;;;;;32.97;18.65;;;;;;;6.10;100.00;100757.53;4970811;28;20047;-78
2021/11/05 03:40:48;;;;;;;33.03;18.90;;;;;;;6.09;100.00;100764.47;4981117;28;20049;-83
2021/11/05 03:43:17;;;;;;;30.30;17.60;;;;;;;6.07;100.00;100768.75;4964819;28;20045;-80
2021/11/05 03:45:46;;;;;;;35.17;19.60;;;;;;;6.07;100.00;100770.50;4965052;28;20055;-83
2021/11/05 03:48:13;;;;;;;32.05;18.10;;;;;;;6.02;100.00;100766.97;4964502;28;20663;-83
2021/11/05 03:50:40;;;;;;;30.98;17.90;;;;;;;6.01;100.00;100775.63;4968462;28;20031;-81
2021/11/05 03:53:07;;;;;;;29.42;17.73;;;;;;;5.99;100.00;100788.59;4964704;28;20039;-81
2021/11/05 03:55:33;;;;;;;33.90;17.25;;;;;;;5.96;100.00;100789.41;4967051;28;20081;-79
2021/11/05 03:58:00;;;;;;;40.58;19.92;;;;;;;5.94;100.00;100788.53;4966301;28;20133;-79
2021/11/05 04:00:27;;;;;;;33.63;17.80;;;;;;;5.95;100.00;100785.03;4984131;28;20062;-79
2021/11/05 04:02:53;;;;;;;34.35;19.38;;;;;;;5.95;100.00;100799.78;4967784;28;20460;-87
2021/11/05 04:05:20;;;;;;;36.70;21.50;;;;;;;5.92;100.00;100798.00;4968273;28;20046;-82
2021/11/05 04:07:47;;;;;;;37.38;18.85;;;;;;;5.91;100.00;100803.19;4952802;28;20062;-80
2021/11/05 04:10:13;;;;;;;34.67;18.33;;;;;;;5.91;100.00;100811.00;4963701;28;20042;-83
2021/11/05 04:12:40;;;;;;;35.80;18.80;;;;;;;5.92;100.00;100810.16;4952214;28;20062;-80
2021/11/05 04:15:08;;;;;;;38.55;20.30;;;;;;;5.91;100.00;100822.25;4962738;28;20050;-82
2021/11/05 04:17:36;;;;;;;37.17;19.30;;;;;;;5.90;100.00;100820.50;4964858;28;20051;-79
2021/11/05 04:20:06;;;;;;;33.47;17.38;;;;;;;5.89;100.00;100825.69;4967049;28;20751;-79
2021/11/05 04:22:33;;;;;;;39.35;20.20;;;;;;;5.88;100.00;100823.91;4980468;28;20183;-79
2021/11/05 04:25:00;;;;;;;34.28;18.25;;;;;;;5.88;100.00;100830.00;4965790;28;20047;-80
2021/11/05 04:27:26;;;;;;;38.65;19.35;;;;;;;5.86;100.00;100830.84;4963002;28;20481;-83
2021/11/05 04:29:56;;;;;;;34.22;17.92;;;;;;;5.85;100.00;100836.88;4965788;28;20035;-80
2021/11/05 04:32:23;;;;;;;33.80;17.35;;;;;;;5.84;100.00;100838.63;4966176;28;20128;-85
2021/11/05 04:34:49;;;;;;;31.63;17.75;;;;;;;5.82;100.00;100837.72;4968822;28;20122;-81
2021/11/05 04:37:16;;;;;;;32.78;17.85;;;;;;;5.81;100.00;100841.16;4962395;28;20046;-78
2021/11/05 04:39:42;;;;;;;36.75;18.58;;;;;;;5.80;100.00;100844.59;4964381;28;20409;-81
2021/11/05 04:42:09;;;;;;;33.97;17.13;;;;;;;5.80;100.00;100849.78;4982102;28;20527;-84
2021/11/05 04:44:36;;;;;;;33.75;18.45;;;;;;;5.78;100.00;100852.38;4966759;28;20078;-81
2021/11/05 04:47:02;;;;;;;38.67;18.23;;;;;;;5.79;100.00;100854.13;4963746;28;20376;-83
2021/11/05 04:49:29;;;;;;;36.42;19.05;;;;;;;5.78;100.00;100854.97;4964581;28;20579;-81
2021/11/05 04:51:55;;;;;;;36.08;17.58;;;;;;;5.76;100.00;100864.50;4949193;28;20794;-78
2021/11/05 04:54:22;;;;;;;32.25;16.65;;;;;;;5.78;100.00;100878.34;4967320;28;20043;-80
2021/11/05 04:56:49;;;;;;;31.55;16.77;;;;;;;5.76;100.00;100874.88;4980760;28;20046;-82
2021/11/05 04:59:16;;;;;;;34.58;17.95;;;;;;;5.76;100.00;100871.38;4965346;28;20039;-82
2021/11/05 05:01:44;;;;;;;34.72;18.08;;;;;;;5.77;100.00;100878.34;4964337;28;20282;-81
2021/11/05 05:04:14;;;;;;;36.33;18.42;;;;;;;5.78;100.00;100882.69;4965787;28;20129;-80
2021/11/05 05:06:41;;;;;;;34.80;18.20;;;;;;;5.80;100.00;100886.16;4982232;28;20053;-78
2021/11/05 05:09:07;;;;;;;34.67;17.40;;;;;;;5.81;100.00;100893.13;4963861;28;20779;-77
2021/11/05 05:11:34;;;;;;;36.95;17.38;;;;;;;5.83;100.00;100887.94;4951462;28;20165;-89
2021/11/05 05:14:09;;;;;;;29.42;15.90;;;;;;;5.84;100.00;100894.88;4963765;28;20066;-79
2021/11/05 05:16:35;;;;;;;31.92;15.88;;;;;;;5.84;100.00;100897.47;4967529;28;20146;-78
2021/11/05 05:19:02;;;;;;;36.63;18.63;;;;;;;5.83;100.00;100903.53;4960314;28;20045;-83
2021/11/05 05:21:30;;;;;;;32.83;16.50;;;;;;;5.84;100.00;100907.88;4972759;28;20054;-82
2021/11/05 05:26:46;;;;;;;33.05;18.15;;;;;;;5.85;100.00;100910.50;4967648;28;20078;-78
2021/11/05 05:29:13;;;;;;;35.42;17.52;;;;;;;5.89;100.00;100920.09;4962420;28;20061;-86
2021/11/05 05:31:40;;;;;;;36.60;17.33;;;;;;;5.91;100.00;100927.91;4959775;28;20126;-85
2021/11/05 05:34:06;;;;;;;31.48;16.60;;;;;;;5.95;100.00;100935.75;4962986;28;20097;-84
2021/11/05 05:36:33;;;;;;;30.83;17.50;;;;;;;5.99;100.00;100922.88;4961353;28;20070;-84
2021/11/05 05:39:07;;;;;;;36.70;19.40;;;;;;;6.01;100.00;100928.94;4964668;28;20560;-86
2021/11/05 05:41:33;;;;;;;32.35;17.90;;;;;;;6.05;100.00;100929.00;4963579;28;20043;-81
2021/11/05 05:44:00;;;;;;;29.52;15.00;;;;;;;6.07;100.00;100937.69;4964041;28;20526;-85
2021/11/05 05:46:26;;;;;;;37.10;17.73;;;;;;;6.11;100.00;100936.91;4945446;28;20054;-81
2021/11/05 05:48:53;;;;;;;31.00;16.17;;;;;;;6.12;100.00;100935.16;4949156;28;20136;-87
2021/11/05 05:51:22;;;;;;;28.20;13.82;;;;;;;6.15;100.00;100943.00;4965448;28;20169;-83
2021/11/05 05:53:49;;;;;;;30.60;15.10;;;;;;;6.16;100.00;100942.16;4963067;28;20508;-81
2021/11/05 05:56:15;;;;;;;27.08;14.82;;;;;;;6.18;100.00;100947.38;4960990;28;20042;-79
2021/11/05 05:58:44;;;;;;;27.85;14.48;;;;;;;6.23;100.00;100954.41;4966374;28;20475;-82
2021/11/05 06:01:10;;;;;;;28.90;14.75;;;;;;;6.23;100.00;100958.69;4965684;28;20488;-84
2021/11/05 06:03:40;;;;;;;27.02;13.35;;;;;;;6.23;100.00;100956.09;4952018;28;20047;-81
2021/11/05 06:06:07;;;;;;;28.08;15.18;;;;;;;6.27;100.00;100963.97;4948821;28;20050;-78
2021/11/05 06:08:33;;;;;;;22.90;13.98;;;;;;;6.27;100.00;100970.88;4946499;28;20133;-81
2021/11/05 06:11:00;;;;;;;25.65;14.43;;;;;;;6.29;100.00;100982.19;4963540;28;20047;-83
2021/11/05 06:13:27;;;;;;;29.17;14.63;;;;;;;6.29;100.00;100980.44;4963287;28;20181;-78
2021/11/05 06:15:54;;;;;;;24.27;13.32;;;;;;;6.29;100.00;100980.44;4967189;28;20065;-80
2021/11/05 06:18:23;;;;;;;26.92;14.02;;;;;;;6.31;100.00;100988.31;4964286;28;20521;-81
2021/11/05 06:20:49;;;;;;;24.88;13.68;;;;;;;6.34;100.00;100997.88;4964071;28;20047;-80
2021/11/05 06:23:16;;;;;;;25.13;13.77;;;;;;;6.37;100.00;100997.91;4962941;28;20125;-77
2021/11/05 06:25:43;;;;;;;27.10;13.85;;;;;;;6.37;100.00;101006.56;4948952;28;20097;-81
2021/11/05 06:28:17;;;;;;;31.40;15.63;;;;;;;6.37;100.00;101009.16;4963990;28;20057;-79
2021/11/05 06:30:44;;;;;;;27.00;15.82;;;;;;;6.38;100.00;101016.13;4962070;28;20068;-82
2021/11/05 06:33:11;;;;;;;28.17;14.45;;;;;;;6.41;100.00;101017.88;4963122;28;20141;-81
2021/11/05 06:35:37;;;;;;;28.38;14.63;;;;;;;6.42;100.00;101024.84;4963188;28;20639;-84
2021/11/05 06:38:04;;;;;;;27.73;15.45;;;;;;;6.44;100.00;101018.81;4945558;28;20135;-83
2021/11/05 06:40:31;;;;;;;27.85;14.70;;;;;;;6.46;100.00;101026.63;4975239;28;20509;-83
2021/11/05 06:42:58;;;;;;;26.85;13.82;;;;;;;6.49;100.00;101029.25;4951785;28;20085;-81
2021/11/05 06:45:28;;;;;;;26.02;14.40;;;;;;;6.49;100.00;101033.59;4948916;28;20063;-83
2021/11/05 06:47:56;;;;;;;24.10;14.02;;;;;;;6.52;100.00;101038.84;4947983;28;20054;-83
2021/11/05 06:50:23;;;;;;;30.50;16.70;;;;;;;6.52;100.00;101044.94;4961499;28;20397;-79
2021/11/05 06:52:49;;;;;;;26.35;14.18;;;;;;;6.55;100.00;101038.91;4965419;28;20049;-82
2021/11/05 06:55:25;;;;;;;28.13;14.35;;;;;;;6.56;100.00;101051.91;4961913;28;20035;-81
2021/11/05 06:57:51;;;;;;;28.23;14.90;;;;;;;6.57;100.00;101056.28;4964683;28;20042;-82
2021/11/05 07:00:20;;;;;;;25.83;15.25;;;;;;;6.56;100.00;101059.72;4964078;28;20136;-82
2021/11/05 07:02:47;;;;;;;25.98;14.55;;;;;;;6.57;100.00;101057.97;4964940;28;20042;-82
2021/11/05 07:05:16;;;;;;;35.35;16.65;;;;;;;6.60;100.00;101069.31;4965688;28;20057;-79
2021/11/05 07:07:44;;;;;;;21.50;13.23;;;;;;;6.61;100.00;101076.28;4977666;28;20069;-85
2021/11/05 07:10:13;;;;;;;28.00;14.18;;;;;;;6.62;100.00;101077.13;4964584;28;20141;-81
2021/11/05 07:12:42;;;;;;;28.98;14.75;;;;;;;6.64;100.00;101079.78;4984588;28;20078;-82
2021/11/05 07:15:14;;;;;;;27.33;15.40;;;;;;;6.65;100.00;101084.09;4969227;28;20054;-82
2021/11/05 07:17:45;;;;;;;25.33;13.45;;;;;;;6.66;100.00;101099.72;4943983;28;20058;-84
2021/11/05 07:20:14;;;;;;;27.35;15.10;;;;;;;6.66;100.00;101096.25;4966950;28;20063;-80
2021/11/05 07:22:47;;;;;;;23.15;13.80;;;;;;;6.69;100.00;101112.81;4973640;28;20046;-78
2021/11/05 07:25:16;;;;;;;27.15;15.23;;;;;;;6.71;100.00;101116.28;4970413;28;20050;-82
2021/11/05 07:27:43;;;;;;;24.58;13.40;;;;;;;6.72;100.00;101119.78;4974941;28;20055;-80
2021/11/05 07:30:13;;;;;;;28.98;15.30;;;;;;;6.75;100.00;101125.00;4968959;28;20697;-82
2021/11/05 07:32:44;;;;;;;23.50;14.80;;;;;;;6.78;100.00;101130.28;4971213;28;20459;-80
2021/11/05 07:35:11;;;;;;;28.00;14.90;;;;;;;6.82;100.00;101131.19;4970489;28;20049;-78
2021/11/05 07:37:38;;;;;;;25.25;14.50;;;;;;;6.85;100.00;101136.44;4955212;28;20117;-83
2021/11/05 07:40:09;;;;;;;28.23;14.55;;;;;;;6.87;100.00;101140.81;4974763;28;20074;-82
2021/11/05 07:42:38;;;;;;;24.20;13.30;;;;;;;6.89;100.00;101144.28;4972016;28;20053;-79
2021/11/05 07:45:14;;;;;;;20.13;12.27;;;;;;;6.87;100.00;101140.81;4971515;28;20121;-82
2021/11/05 07:47:42;;;;;;;22.90;13.70;;;;;;;6.87;100.00;101139.94;4977876;28;20105;-83
2021/11/05 07:50:20;;;;;;;23.75;12.63;;;;;;;6.88;100.00;101142.56;4974755;28;20058;-80
2021/11/05 07:52:47;;;;;;;22.75;13.10;;;;;;;6.91;100.00;101146.91;4968549;28;20042;-82
2021/11/05 07:55:14;;;;;;;23.95;12.68;;;;;;;6.91;100.00;101155.63;4953603;28;20055;-80
2021/11/05 07:57:43;;;;;;;25.05;13.38;;;;;;;6.95;100.00;101152.19;4969938;28;20062;-81
2021/11/05 08:00:15;;;;;;;26.38;13.48;;;;;;;7.02;100.00;101157.50;4966298;28;20089;-82
2021/11/05 08:02:44;;;;;;;25.23;12.45;;;;;;;7.05;100.00;101158.44;4971268;28;20792;-83
2021/11/05 08:05:14;;;;;;;23.58;12.50;;;;;;;7.08;100.00;101162.81;4952425;28;20057;-82
2021/11/05 08:07:44;;;;;;;20.52;12.27;;;;;;;7.10;100.00;101172.38;4968253;28;20046;-79
2021/11/05 08:10:19;;;;;;;23.52;12.65;;;;;;;7.11;100.00;101170.63;4966544;28;20633;-83
2021/11/05 08:12:46;;;;;;;19.98;12.02;;;;;;;7.17;100.00;101178.53;4968144;28;20121;-80
2021/11/05 08:15:21;;;;;;;25.30;11.38;;;;;;;7.21;100.00;101184.63;4969086;28;20038;-83
2021/11/05 08:17:48;;;;;;;19.73;11.55;;;;;;;7.25;100.00;101184.72;4953187;28;20068;-81
2021/11/05 08:20:16;;;;;;;19.23;11.07;;;;;;;7.26;100.00;101186.47;4966391;28;20074;-80
2021/11/05 08:22:47;;;;;;;18.90;11.77;;;;;;;7.25;100.00;101197.72;4968460;28;20038;-80
2021/11/05 08:25:17;;;;;;;21.17;10.95;;;;;;;7.23;100.00;101198.56;4968416;28;20054;-78
2021/11/05 08:27:45;;;;;;;25.88;11.48;;;;;;;7.18;100.00;101198.50;4966039;28;20551;-83
2021/11/05 08:30:21;;;;;;;20.35;10.27;;;;;;;7.12;100.00;101196.69;4967404;28;20054;-81
2021/11/05 08:32:48;;;;;;;20.08;11.30;;;;;;;7.10;100.00;101192.31;4981394;28;20050;-76
2021/11/05 08:35:16;;;;;;;19.23;11.55;;;;;;;7.09;100.00;101204.47;4967352;28;20039;-80
2021/11/05 08:37:43;;;;;;;21.80;11.07;;;;;;;7.10;100.00;101215.75;4966166;28;20060;-80
2021/11/05 08:40:11;;;;;;;22.58;11.90;;;;;;;7.08;100.00;101214.88;4964711;28;20113;-86
2021/11/05 08:42:39;;;;;;;19.65;10.45;;;;;;;7.12;100.00;101220.13;4948596;28;20414;-82
2021/11/05 08:45:08;;;;;;;22.65;11.43;;;;;;;7.22;100.00;101221.16;4961780;28;20054;-84
2021/11/05 08:47:37;;;;;;;19.58;10.35;;;;;;;7.31;100.00;101228.19;4948109;28;20050;-82
2021/11/05 08:50:10;;;;;;;16.77;8.85;;;;;;;7.42;100.00;101228.34;4966898;28;20129;-84
2021/11/05 08:52:40;;;;;;;17.17;11.15;;;;;;;7.53;100.00;101242.38;4968595;28;20051;-83
2021/11/05 08:55:09;;;;;;;16.83;10.68;;;;;;;7.60;100.00;101245.94;4965806;28;20039;-83
2021/11/05 08:57:36;;;;;;;19.83;9.80;;;;;;;7.63;100.00;101240.78;4964723;28;20039;-80
2021/11/05 09:00:11;;;;;;;20.02;10.82;;;;;;;7.71;100.00;101244.34;4966340;28;20045;-82
2021/11/05 09:02:39;;;;;;;18.13;10.32;;;;;;;7.76;100.00;101241.81;4967882;28;20061;-81
2021/11/05 09:05:06;;;;;;;16.55;9.75;;;;;;;7.80;100.00;101253.16;4967420;28;20204;-79
2021/11/05 09:07:32;;;;;;;20.52;10.30;;;;;;;7.87;100.00;101252.34;4966639;28;20042;-81
2021/11/05 09:09:59;;;;;;;16.73;9.15;;;;;;;7.91;100.00;101262.84;4950878;28;20139;-86
2021/11/05 09:12:26;;;;;;;15.60;8.93;;;;;;;7.98;100.00;101257.69;4948861;28;20556;-81
2021/11/05 09:14:52;;;;;;;20.02;9.30;;;;;;;8.06;100.00;101269.09;4967175;28;20780;-81
2021/11/05 09:17:19;;;;;;;17.05;8.93;;;;;;;8.18;100.00;101265.75;4966157;28;20116;-77
2021/11/05 09:19:46;;;;;;;13.60;7.68;;;;;;;8.35;100.00;101271.13;4965733;28;20350;-79
2021/11/05 09:22:12;;;;;;;13.52;8.45;;;;;;;8.55;100.00;101274.84;4964357;28;20047;-81
2021/11/05 09:24:39;;;;;;;18.55;9.65;;;;;;;8.76;100.00;101271.56;4965187;28;20171;-78
2021/11/05 09:27:06;;;;;;;15.60;10.00;;;;;;;8.94;100.00;101275.16;4966171;28;21289;-78
2021/11/05 09:29:33;;;;;;;18.60;8.57;;;;;;;8.98;100.00;101283.91;4966331;28;20082;-83
2021/11/05 09:31:59;;;;;;;14.85;8.95;;;;;;;8.93;98.54;101287.34;4968480;28;20078;-79
2021/11/05 09:34:31;;;;;;;13.50;9.40;;;;;;;9.04;100.00;101292.66;4967083;28;20046;-81
2021/11/05 09:36:58;;;;;;;15.23;8.40;;;;;;;9.12;99.34;101300.53;4962872;28;20043;-81
2021/11/05 09:39:24;;;;;;;17.27;9.27;;;;;;;9.14;98.77;101304.06;4948447;28;20043;-80
2021/11/05 09:41:51;;;;;;;17.67;7.90;;;;;;;9.20;97.90;101304.06;4967994;28;20547;-82
2021/11/05 09:44:21;;;;;;;15.65;8.73;;;;;;;9.25;97.07;101314.56;4964934;28;20093;-86
2021/11/05 09:47:02;;;;;;;12.25;7.90;;;;;;;9.13;97.13;101323.19;4960268;28;20053;-79
2021/11/05 09:49:28;;;;;;;17.83;9.93;;;;;;;9.05;97.24;101327.50;4966598;28;20578;-80
2021/11/05 09:51:58;;;;;;;15.98;8.77;;;;;;;8.91;98.42;101336.06;4963772;28;20051;-83
2021/11/05 09:54:26;;;;;;;11.48;8.77;;;;;;;8.82;98.93;101332.50;4982101;28;20054;-80
2021/11/05 09:56:53;;;;;;;14.25;9.48;;;;;;;8.82;99.45;101341.19;4978969;28;20670;-86
2021/11/05 09:59:20;;;;;;;12.27;8.05;;;;;;;8.93;99.31;101341.31;4953120;28;20038;-84
2021/11/05 10:01:47;;;;;;;15.25;8.57;;;;;;;9.03;97.33;101340.50;4963802;28;20059;-85
2021/11/05 10:04:14;;;;;;;12.50;8.18;;;;;;;9.21;97.24;101349.38;4944663;28;20057;-85
2021/11/05 10:07:03;;;;;;;17.63;8.70;;;;;;;9.24;96.26;101349.38;4947138;28;20448;-83
2021/11/05 10:09:41;;;;;;;14.13;7.00;;;;;;;9.22;96.44;101352.00;4945535;28;20079;-81
2021/11/05 10:12:18;;;;;;;11.52;7.15;;;;;;;9.32;96.30;101355.56;4964911;28;20226;-81
2021/11/05 10:14:54;;;;;;;13.32;7.85;;;;;;;9.40;96.03;101358.25;4967886;28;20068;-86
2021/11/05 10:17:24;;;;;;;11.93;7.55;;;;;;;9.60;94.27;101358.38;4961401;28;20094;-83
2021/11/05 10:20:08;;;;;;;10.30;7.45;;;;;;;9.75;93.11;101361.06;4963132;28;20043;-81
2021/11/05 10:22:53;;;;;;;10.32;7.07;;;;;;;9.58;92.64;101368.81;4946668;28;20750;-80
2021/11/05 10:25:36;;;;;;;13.38;6.78;;;;;;;9.55;94.60;101368.78;4985020;28;20102;-81
2021/11/05 10:28:25;;;;;;;14.50;8.02;;;;;;;9.62;94.71;101369.72;4979647;28;20484;-82
2021/11/05 10:31:05;;;;;;;12.13;8.88;;;;;;;9.75;94.69;101371.53;4964524;28;20058;-81
2021/11/05 10:33:52;;;;;;;16.17;6.80;;;;;;;9.84;94.42;101369.81;4964568;28;20054;-84
2021/11/05 10:36:23;;;;;;;13.68;7.85;;;;;;;9.91;94.23;101367.25;4977122;28;20654;-83
2021/11/05 10:39:00;;;;;;;13.20;7.28;;;;;;;9.96;90.87;101369.03;4964777;28;20298;-82
2021/11/05 10:41:33;;;;;;;13.38;6.70;;;;;;;9.90;92.73;101375.09;4953197;28;20047;-81
2021/11/05 10:44:13;;;;;;;11.55;7.53;;;;;;;9.93;91.35;101373.38;4962625;28;20161;-82
2021/11/05 10:46:44;;;;;;;10.90;7.15;;;;;;;9.82;91.92;101387.28;4965846;28;20516;-81
2021/11/05 10:49:25;;;;;;;12.88;6.05;;;;;;;9.67;92.66;101377.56;4965388;28;20594;-82
2021/11/05 10:51:54;;;;;;;11.77;7.10;;;;;;;9.57;93.82;101381.88;4984693;28;20440;-80
2021/11/05 10:54:23;;;;;;;9.02;5.85;;;;;;;9.53;93.38;101380.97;4984353;28;20153;-80
2021/11/05 10:56:49;;;;;;;9.57;6.05;;;;;;;9.48;93.23;101387.91;4950003;28;20493;-81
2021/11/05 10:59:26;;;;;;;11.98;6.30;;;;;;;9.43;92.94;101387.00;4968754;28;20039;-83
2021/11/05 11:01:53;;;;;;;8.18;4.80;;;;;;;9.36;93.47;101385.19;4953379;28;20046;-79
2021/11/05 11:04:28;;;;;;;11.10;5.30;;;;;;;9.50;92.08;101388.78;4971692;28;20042;-81
2021/11/05 11:06:55;;;;;;;7.68;5.75;;;;;;;9.56;92.85;101393.19;4971906;28;20504;-83
2021/11/05 11:09:24;;;;;;;9.60;5.95;;;;;;;9.49;93.56;101388.78;4952741;28;20105;-82
2021/11/05 11:11:54;;;;;;;8.23;5.32;;;;;;;9.21;95.30;101389.44;4968965;28;20046;-86
2021/11/05 11:14:31;;;;;;;9.98;7.00;;;;;;;9.17;96.58;101389.41;4964157;28;20046;-81
2021/11/05 11:16:59;;;;;;;8.32;6.50;;;;;;;9.19;96.37;101395.50;4961299;28;20075;-82
2021/11/05 11:19:30;;;;;;;9.93;5.68;;;;;;;9.24;96.36;101397.31;4966650;28;20055;-79
2021/11/05 11:22:06;;;;;;;11.73;6.70;;;;;;;9.46;96.24;101396.59;4964588;28;20050;-84